createdAt,value
2023-03-12T00:02:09.883Z,100370.25
2023-03-12T00:04:36.662Z,100368.09
2023-03-12T00:07:06.459Z,100372.13
2023-03-12T00:09:38.488Z,100364.53
2023-03-12T00:12:05.916Z,100361.41
2023-03-12T00:14:33.377Z,100364.03
2023-03-12T00:17:00.256Z,100357.38
2023-03-12T00:19:26.924Z,100368.28
2023-03-12T00:21:53.878Z,100357.03
2023-03-12T00:24:20.564Z,100357.72
2023-03-12T00:26:47.702Z,100361.00
2023-03-12T00:29:14.327Z,100350.84
2023-03-12T00:31:40.936Z,100365.63
2023-03-12T00:34:07.720Z,100363.78
2023-03-12T00:36:34.703Z,100361.16
2023-03-12T00:39:02.063Z,100359.13
2023-03-12T00:41:30.226Z,100357.50
2023-03-12T00:43:57.498Z,100349.81
2023-03-12T00:46:24.771Z,100353.66
2023-03-12T00:48:51.786Z,100338.84
2023-03-12T00:51:19.479Z,100346.66
2023-03-12T00:53:46.388Z,100339.19
2023-03-12T00:56:13.653Z,100345.84
2023-03-12T00:58:42.613Z,100341.22
2023-03-12T01:01:10.269Z,100339.00
2023-03-12T01:03:37.466Z,100327.47
2023-03-12T01:06:05.504Z,100330.19
2023-03-12T01:08:32.641Z,100332.25
2023-03-12T01:10:59.569Z,100325.16
2023-03-12T01:13:26.453Z,100326.47
2023-03-12T01:15:53.177Z,100328.78
2023-03-12T01:18:20.861Z,100321.41
2023-03-12T01:20:47.669Z,100323.66
2023-03-12T01:23:14.575Z,100317.56
2023-03-12T01:25:42.066Z,100333.22
2023-03-12T01:28:09.571Z,100321.25
2023-03-12T01:30:36.605Z,100314.69
2023-03-12T01:33:03.524Z,100318.25
2023-03-12T01:35:30.785Z,100323.16
2023-03-12T01:37:57.872Z,100307.69
2023-03-12T01:40:28.935Z,100309.94
2023-03-12T01:42:57.691Z,100308.81
2023-03-12T01:46:02.905Z,100307.88
2023-03-12T01:48:34.050Z,100303.19
2023-03-12T01:51:02.462Z,100311.88
2023-03-12T01:53:30.216Z,100304.75
2023-03-12T01:55:58.495Z,100303.81
2023-03-12T01:58:27.533Z,100294.22
2023-03-12T02:00:54.881Z,100285.59
2023-03-12T02:03:22.346Z,100277.31
2023-03-12T02:05:55.614Z,100269.63
2023-03-12T02:08:24.146Z,100261.91
2023-03-12T02:10:51.379Z,100261.19
2023-03-12T02:13:18.525Z,100260.50
2023-03-12T02:15:45.562Z,100260.72
2023-03-12T02:18:16.652Z,100259.91
2023-03-12T02:21:08.343Z,100258.81
2023-03-12T02:23:47.710Z,100253.97
2023-03-12T02:26:15.755Z,100249.38
2023-03-12T02:28:45.857Z,100247.88
2023-03-12T02:31:17.847Z,100240.47
2023-03-12T02:33:44.938Z,100216.56
2023-03-12T02:36:11.917Z,100214.31
2023-03-12T02:39:05.816Z,100217.22
2023-03-12T02:41:36.270Z,100207.84
2023-03-12T02:44:09.951Z,100218.84
2023-03-12T02:46:46.689Z,100226.91
2023-03-12T02:49:14.263Z,100223.03
2023-03-12T02:51:42.208Z,100219.97
2023-03-12T02:54:10.137Z,100211.41
2023-03-12T02:56:37.372Z,100205.75
2023-03-12T02:59:05.346Z,100211.72
2023-03-12T03:01:35.295Z,100213.50
2023-03-12T03:04:04.047Z,100221.25
2023-03-12T03:06:32.356Z,100210.94
2023-03-12T03:08:59.691Z,100204.13
2023-03-12T03:11:27.032Z,100213.97
2023-03-12T03:13:55.144Z,100213.97
2023-03-12T03:16:23.303Z,100201.34
2023-03-12T03:18:50.882Z,100197.47
2023-03-12T03:21:18.374Z,100210.09
2023-03-12T03:23:47.776Z,100203.63
2023-03-12T03:26:15.783Z,100202.81
2023-03-12T03:31:08.751Z,100204.94
2023-03-12T03:33:37.899Z,100214.94
2023-03-12T03:36:07.730Z,100213.78
2023-03-12T03:38:35.180Z,100219.13
2023-03-12T03:41:03.022Z,100219.31
2023-03-12T03:43:30.007Z,100211.72
2023-03-12T03:46:03.334Z,100205.41
2023-03-12T03:48:31.119Z,100211.84
2023-03-12T03:51:01.908Z,100210.25
2023-03-12T03:53:29.279Z,100209.44
2023-03-12T03:55:55.858Z,100202.00
2023-03-12T03:58:23.013Z,100195.84
2023-03-12T04:00:49.951Z,100197.75
2023-03-12T04:03:16.512Z,100198.72
2023-03-12T04:05:46.081Z,100191.44
2023-03-12T04:08:13.638Z,100196.66
2023-03-12T04:10:40.486Z,100197.28
2023-03-12T04:13:07.776Z,100197.75
2023-03-12T04:15:34.724Z,100193.19
2023-03-12T04:18:02.086Z,100196.63
2023-03-12T04:20:29.004Z,100188.03
2023-03-12T04:22:58.334Z,100182.88
2023-03-12T04:25:25.190Z,100178.50
2023-03-12T04:27:51.854Z,100189.97
2023-03-12T04:30:18.553Z,100183.00
2023-03-12T04:32:46.273Z,100173.47
2023-03-12T04:35:12.913Z,100174.13
2023-03-12T04:37:39.840Z,100178.31
2023-03-12T04:40:08.305Z,100179.31
2023-03-12T04:42:35.598Z,100171.91
2023-03-12T04:45:05.339Z,100174.59
2023-03-12T04:47:33.505Z,100174.13
2023-03-12T04:50:00.374Z,100168.16
2023-03-12T04:52:28.178Z,100174.94
2023-03-12T04:54:55.135Z,100168.63
2023-03-12T04:57:21.806Z,100169.16
2023-03-12T04:59:48.757Z,100164.78
2023-03-12T05:02:15.520Z,100154.13
2023-03-12T05:04:42.572Z,100153.63
2023-03-12T05:07:09.536Z,100153.03
2023-03-12T05:09:36.580Z,100152.03
2023-03-12T05:12:03.457Z,100162.06
2023-03-12T05:14:30.865Z,100159.31
2023-03-12T05:16:57.797Z,100157.38
2023-03-12T05:19:24.431Z,100152.38
2023-03-12T05:21:51.236Z,100148.22
2023-03-12T05:24:18.935Z,100149.16
2023-03-12T05:26:45.625Z,100137.03
2023-03-12T05:29:13.630Z,100130.41
2023-03-12T05:31:41.224Z,100135.63
2023-03-12T05:34:12.475Z,100135.25
2023-03-12T05:36:39.933Z,100134.94
2023-03-12T05:39:07.142Z,100132.38
2023-03-12T05:41:34.691Z,100127.97
2023-03-12T05:44:01.755Z,100126.03
2023-03-12T05:46:29.137Z,100117.78
2023-03-12T05:48:56.950Z,100120.22
2023-03-12T05:51:23.928Z,100117.31
2023-03-12T05:53:51.246Z,100116.34
2023-03-12T05:56:17.932Z,100118.13
2023-03-12T05:58:44.896Z,100104.88
2023-03-12T06:01:18.071Z,100109.38
2023-03-12T06:03:45.645Z,100106.00
2023-03-12T06:06:13.474Z,100110.38
2023-03-12T06:08:41.913Z,100111.50
2023-03-12T06:11:09.202Z,100115.69
2023-03-12T06:13:36.369Z,100104.06
2023-03-12T06:16:15.563Z,100100.97
2023-03-12T06:18:42.610Z,100100.47
2023-03-12T06:21:17.864Z,100096.06
2023-03-12T06:23:46.732Z,100085.88
2023-03-12T06:26:14.134Z,100071.41
2023-03-12T06:28:42.024Z,100076.06
2023-03-12T06:31:09.042Z,100079.59
2023-03-12T06:33:36.562Z,100073.28
2023-03-12T06:36:05.714Z,100078.91
2023-03-12T06:38:33.668Z,100078.28
2023-03-12T06:41:03.391Z,100073.72
2023-03-12T06:43:32.693Z,100089.84
2023-03-12T06:46:00.510Z,100088.53
2023-03-12T06:48:33.426Z,100094.66
2023-03-12T06:51:00.411Z,100085.16
2023-03-12T06:53:27.448Z,100096.59
2023-03-12T06:55:54.090Z,100098.41
2023-03-12T06:58:20.809Z,100107.16
2023-03-12T07:00:50.423Z,100099.41
2023-03-12T07:03:17.600Z,100111.91
2023-03-12T07:05:45.702Z,100107.69
2023-03-12T07:08:13.652Z,100108.97
2023-03-12T07:10:40.894Z,100111.03
2023-03-12T07:13:09.098Z,100098.91
2023-03-12T07:15:35.678Z,100101.50
2023-03-12T07:18:10.283Z,100105.41
2023-03-12T07:20:39.901Z,100103.25
2023-03-12T07:23:08.157Z,100105.03
2023-03-12T07:25:37.199Z,100103.75
2023-03-12T07:28:04.765Z,100116.69
2023-03-12T07:30:33.560Z,100117.00
2023-03-12T07:33:06.164Z,100123.56
2023-03-12T07:35:33.014Z,100117.00
2023-03-12T07:38:01.784Z,100113.56
2023-03-12T07:40:29.051Z,100114.19
2023-03-12T07:42:56.532Z,100109.47
2023-03-12T07:45:23.833Z,100118.88
2023-03-12T07:47:51.833Z,100113.56
2023-03-12T07:50:19.526Z,100112.72
2023-03-12T07:52:49.261Z,100114.47
2023-03-12T07:55:16.560Z,100106.59
2023-03-12T07:57:43.506Z,100112.59
2023-03-12T08:00:11.116Z,100107.19
2023-03-12T08:02:38.690Z,100106.28
2023-03-12T08:05:07.703Z,100100.78
2023-03-12T08:07:35.665Z,100096.16
2023-03-12T08:10:07.448Z,100105.03
2023-03-12T08:12:35.451Z,100109.03
2023-03-12T08:15:03.319Z,100106.81
2023-03-12T08:17:30.784Z,100106.56
2023-03-12T08:19:57.490Z,100105.75
2023-03-12T08:22:24.725Z,100098.75
2023-03-12T08:24:51.346Z,100085.72
2023-03-12T08:27:18.683Z,100088.81
2023-03-12T08:29:45.800Z,100098.34
2023-03-12T08:32:14.149Z,100111.91
2023-03-12T08:34:40.951Z,100107.75
2023-03-12T08:37:08.219Z,100096.41
2023-03-12T08:39:35.215Z,100107.81
2023-03-12T08:42:02.634Z,100096.47
2023-03-12T08:44:29.848Z,100096.56
2023-03-12T08:46:57.023Z,100097.06
2023-03-12T08:49:24.006Z,100105.91
2023-03-12T08:51:53.536Z,100106.28
2023-03-12T08:54:21.645Z,100095.06
2023-03-12T08:56:52.483Z,100101.69
2023-03-12T08:59:22.200Z,100104.94
2023-03-12T09:01:49.842Z,100100.81
2023-03-12T09:04:17.211Z,100091.03
2023-03-12T09:06:44.495Z,100080.81
2023-03-12T09:09:11.754Z,100081.72
2023-03-12T09:11:39.800Z,100074.25
2023-03-12T09:15:00.984Z,100080.00
2023-03-12T09:16:54.352Z,100082.53
2023-03-12T09:19:21.501Z,100092.00
2023-03-12T09:21:48.799Z,100091.19
2023-03-12T09:24:15.965Z,100097.63
2023-03-12T09:26:42.512Z,100094.84
2023-03-12T09:29:09.679Z,100092.00
2023-03-12T09:31:36.549Z,100092.56
2023-03-12T09:34:04.707Z,100095.41
2023-03-12T09:36:31.981Z,100096.66
2023-03-12T09:38:59.391Z,100095.19
2023-03-12T09:41:30.300Z,100097.03
2023-03-12T09:44:02.566Z,100092.06
2023-03-12T09:46:37.567Z,100098.63
2023-03-12T09:49:22.976Z,100092.41
2023-03-12T09:51:56.394Z,100091.91
2023-03-12T09:54:42.818Z,100088.41
2023-03-12T09:57:14.571Z,100082.66
2023-03-12T09:59:41.922Z,100086.63
2023-03-12T10:02:32.262Z,100095.66
2023-03-12T10:05:06.444Z,100087.84
2023-03-12T10:07:45.803Z,100079.63
2023-03-12T10:10:35.599Z,100085.56
2023-03-12T10:13:18.610Z,100085.19
2023-03-12T10:16:10.301Z,100089.38
2023-03-12T10:18:49.213Z,100088.44
2023-03-12T10:21:54.751Z,100089.31
2023-03-12T10:24:36.633Z,100084.13
2023-03-12T10:27:22.530Z,100084.22
2023-03-12T10:29:52.515Z,100078.59
2023-03-12T10:32:24.914Z,100081.06
2023-03-12T10:35:03.127Z,100091.16
2023-03-12T10:37:42.306Z,100093.91
2023-03-12T10:40:16.185Z,100102.13
2023-03-12T10:42:43.659Z,100094.91
2023-03-12T10:45:10.424Z,100102.81
2023-03-12T10:47:42.642Z,100094.22
2023-03-12T10:50:24.829Z,100102.63
2023-03-12T10:53:12.687Z,100095.75
2023-03-12T10:55:40.311Z,100100.69
2023-03-12T10:58:10.131Z,100095.09
2023-03-12T11:00:36.995Z,100105.88
2023-03-12T11:03:18.761Z,100088.03
2023-03-12T11:05:49.551Z,100083.94
2023-03-12T11:08:24.189Z,100079.28
2023-03-12T11:10:50.869Z,100088.25
2023-03-12T11:13:24.515Z,100079.41
2023-03-12T11:15:52.804Z,100087.34
2023-03-12T11:18:38.393Z,100081.06
2023-03-12T11:21:12.834Z,100089.31
2023-03-12T11:23:48.191Z,100083.66
2023-03-12T11:27:16.476Z,100089.84
2023-03-12T11:29:48.637Z,100077.78
2023-03-12T11:32:42.918Z,100077.47
2023-03-12T11:39:51.556Z,100081.34
2023-03-12T11:42:38.293Z,100078.13
2023-03-12T11:45:28.884Z,100067.59
2023-03-12T11:48:34.985Z,100062.66
2023-03-12T11:51:19.147Z,100064.94
2023-03-12T11:54:08.454Z,100072.41
2023-03-12T11:56:48.960Z,100072.03
2023-03-12T11:59:41.365Z,100073.50
2023-03-12T12:02:47.460Z,100062.47
2023-03-12T12:05:20.899Z,100053.28
2023-03-12T12:07:55.365Z,100051.38
2023-03-12T12:10:31.332Z,100050.00
2023-03-12T12:13:14.184Z,100044.25
2023-03-12T12:15:57.011Z,100044.56
2023-03-12T12:18:36.213Z,100048.78
2023-03-12T12:21:26.221Z,100052.50
2023-03-12T12:24:07.060Z,100051.31
2023-03-12T12:26:43.159Z,100062.84
2023-03-12T12:29:28.713Z,100048.16
2023-03-12T12:31:58.088Z,100045.03
2023-03-12T12:35:07.943Z,100047.41
2023-03-12T12:37:42.993Z,100042.78
2023-03-12T12:40:20.578Z,100040.09
2023-03-12T12:43:02.444Z,100042.09
2023-03-12T12:45:31.135Z,100045.66
2023-03-12T12:48:12.164Z,100044.66
2023-03-12T12:50:39.848Z,100047.16
2023-03-12T12:53:15.651Z,100051.56
2023-03-12T12:56:14.908Z,100047.22
2023-03-12T12:59:12.673Z,100044.03
2023-03-12T13:01:39.900Z,100023.34
2023-03-12T13:04:14.843Z,100019.78
2023-03-12T13:07:24.090Z,100022.97
2023-03-12T13:09:54.880Z,100014.50
2023-03-12T13:12:24.693Z,100028.50
2023-03-12T13:14:54.663Z,100028.91
2023-03-12T13:17:34.763Z,100022.41
2023-03-12T13:20:05.850Z,100019.28
2023-03-12T13:23:03.132Z,100024.56
2023-03-12T13:25:50.475Z,100022.88
2023-03-12T13:28:30.361Z,100021.31
2023-03-12T13:30:59.983Z,100024.97
2023-03-12T13:33:45.245Z,100022.13
2023-03-12T13:36:23.725Z,100019.41
2023-03-12T13:39:05.844Z,100020.16
2023-03-12T13:41:45.392Z,100044.88
2023-03-12T13:44:27.247Z,100031.63
2023-03-12T13:47:22.672Z,100034.41
2023-03-12T13:49:53.187Z,100031.63
2023-03-12T13:52:42.233Z,100035.22
2023-03-12T13:55:24.736Z,100023.31
2023-03-12T13:58:17.836Z,100025.75
2023-03-12T14:01:06.766Z,100016.56
2023-03-12T14:03:42.456Z,100015.44
2023-03-12T14:06:14.489Z,100022.56
2023-03-12T14:09:07.871Z,100028.94
2023-03-12T14:11:38.751Z,100009.81
2023-03-12T14:14:20.583Z,100014.56
2023-03-12T14:16:50.664Z,100016.97
2023-03-12T14:19:22.616Z,100002.19
2023-03-12T14:21:51.114Z,99998.19
2023-03-12T14:24:33.131Z,99991.81
2023-03-12T14:27:02.562Z,100001.81
2023-03-12T14:29:46.580Z,99998.63
2023-03-12T14:32:22.375Z,100010.59
2023-03-12T14:35:23.267Z,100003.03
2023-03-12T14:38:28.518Z,99999.81
2023-03-12T14:41:01.636Z,99997.84
2023-03-12T14:43:32.630Z,99988.66
2023-03-12T14:46:06.260Z,99987.00
2023-03-12T14:48:35.829Z,99988.13
2023-03-12T14:51:05.865Z,99996.16
2023-03-12T14:53:38.177Z,99990.59
2023-03-12T14:56:14.383Z,99997.41
2023-03-12T14:58:48.222Z,99997.84
2023-03-12T15:01:20.924Z,100007.78
2023-03-12T15:03:55.474Z,100000.22
2023-03-12T15:06:30.069Z,99993.81
2023-03-12T15:08:59.288Z,100001.00
2023-03-12T15:11:28.271Z,99999.41
2023-03-12T15:14:00.986Z,99998.59
2023-03-12T15:16:29.193Z,100004.56
2023-03-12T15:18:56.981Z,100011.41
2023-03-12T15:21:24.583Z,100012.56
2023-03-12T15:23:52.141Z,100030.88
2023-03-12T15:26:21.645Z,100029.72
2023-03-12T15:29:19.263Z,100021.31
2023-03-12T15:31:49.902Z,100028.13
2023-03-12T15:34:47.025Z,100039.69
2023-03-12T15:37:34.884Z,100044.84
2023-03-12T15:40:06.305Z,100040.91
2023-03-12T15:42:59.135Z,100039.34
2023-03-12T15:45:34.880Z,100032.13
2023-03-12T15:48:02.442Z,100025.34
2023-03-12T15:50:41.585Z,100030.91
2023-03-12T15:53:11.947Z,100028.13
2023-03-12T15:55:39.542Z,100020.91
2023-03-12T15:58:27.388Z,100018.50
2023-03-12T16:00:54.567Z,100025.66
2023-03-12T16:03:22.410Z,100032.81
2023-03-12T16:05:50.422Z,100028.06
2023-03-12T16:08:25.786Z,100039.97
2023-03-12T16:10:55.766Z,100045.53
2023-03-12T16:13:31.254Z,100046.72
2023-03-12T16:16:01.584Z,100065.47
2023-03-12T16:18:30.699Z,100048.78
2023-03-12T16:20:58.515Z,100054.34
2023-03-12T16:23:26.290Z,100045.97
2023-03-12T16:25:55.819Z,100041.66
2023-03-12T16:28:23.721Z,100046.75
2023-03-12T16:30:52.036Z,100049.19
2023-03-12T16:33:21.427Z,100053.97
2023-03-12T16:35:48.486Z,100053.56
2023-03-12T16:38:15.690Z,100054.34
2023-03-12T16:40:48.469Z,100052.75
2023-03-12T16:43:22.788Z,100046.75
2023-03-12T16:45:51.831Z,100051.13
2023-03-12T16:48:22.988Z,100063.84
2023-03-12T16:50:57.692Z,100069.50
2023-03-12T16:53:25.757Z,100082.94
2023-03-12T16:55:59.785Z,100076.63
2023-03-12T16:58:28.183Z,100069.50
2023-03-12T17:00:56.020Z,100070.28
2023-03-12T17:03:26.603Z,100084.63
2023-03-12T17:05:53.770Z,100081.03
2023-03-12T17:08:20.922Z,100079.91
2023-03-12T17:10:47.832Z,100070.63
2023-03-12T17:13:19.538Z,100078.91
2023-03-12T17:15:49.542Z,100074.06
2023-03-12T17:18:17.563Z,100061.06
2023-03-12T17:20:45.233Z,100069.44
2023-03-12T17:23:12.631Z,100073.28
2023-03-12T17:25:42.186Z,100075.97
2023-03-12T17:28:09.908Z,100083.94
2023-03-12T17:30:38.161Z,100080.50
2023-03-12T17:33:11.498Z,100082.91
2023-03-12T17:35:39.701Z,100089.47
2023-03-12T17:38:07.175Z,100089.09
2023-03-12T17:40:35.538Z,100090.59
2023-03-12T17:43:02.785Z,100097.03
2023-03-12T17:45:30.765Z,100090.38
2023-03-12T17:47:57.650Z,100085.28
2023-03-12T17:50:24.439Z,100093.47
2023-03-12T17:52:51.801Z,100092.88
2023-03-12T17:55:19.199Z,100077.16
2023-03-12T17:57:46.110Z,100086.25
2023-03-12T18:00:13.382Z,100089.22
2023-03-12T18:02:42.686Z,100093.56
2023-03-12T18:05:11.545Z,100104.06
2023-03-12T18:07:40.821Z,100110.44
2023-03-12T18:10:11.096Z,100109.38
2023-03-12T18:12:40.168Z,100109.03
2023-03-12T18:15:10.868Z,100119.03
2023-03-12T18:17:38.408Z,100120.31
2023-03-12T18:20:09.601Z,100125.97
2023-03-12T18:22:41.179Z,100127.59
2023-03-12T18:25:08.556Z,100116.47
2023-03-12T18:27:36.561Z,100114.78
2023-03-12T18:30:04.109Z,100129.59
2023-03-12T18:32:31.262Z,100118.69
2023-03-12T18:34:58.083Z,100125.63
2023-03-12T18:37:24.853Z,100125.03
2023-03-12T18:39:51.686Z,100130.03
2023-03-12T18:42:18.611Z,100134.44
2023-03-12T18:44:45.336Z,100129.69
2023-03-12T18:47:12.219Z,100135.41
2023-03-12T18:49:38.995Z,100130.19
2023-03-12T18:52:05.755Z,100139.66
2023-03-12T18:54:33.629Z,100140.00
2023-03-12T18:57:00.920Z,100138.66
2023-03-12T18:59:28.821Z,100145.25
2023-03-12T19:01:56.866Z,100142.91
2023-03-12T19:04:23.799Z,100129.09
2023-03-12T19:06:51.849Z,100125.28
2023-03-12T19:09:19.648Z,100130.28
2023-03-12T19:11:47.925Z,100124.25
2023-03-12T19:14:15.259Z,100128.16
2023-03-12T19:16:43.346Z,100137.56
2023-03-12T19:19:10.099Z,100130.72
2023-03-12T19:21:36.937Z,100125.56
2023-03-12T19:24:03.838Z,100124.56
2023-03-12T19:26:31.296Z,100124.91
2023-03-12T19:28:57.848Z,100124.81
2023-03-12T19:31:25.286Z,100120.44
2023-03-12T19:33:52.652Z,100120.84
2023-03-12T19:36:19.582Z,100115.25
2023-03-12T19:38:46.155Z,100118.53
2023-03-12T19:41:13.431Z,100112.88
2023-03-12T19:43:41.604Z,100099.56
2023-03-12T19:46:08.365Z,100100.19
2023-03-12T19:48:35.344Z,100099.28
2023-03-12T19:51:10.864Z,100102.47
2023-03-12T19:53:39.173Z,100101.63
2023-03-12T19:56:06.330Z,100102.28
2023-03-12T19:58:33.363Z,100092.13
2023-03-12T20:01:00.401Z,100095.97
2023-03-12T20:03:30.123Z,100095.16
2023-03-12T20:05:56.979Z,100095.69
2023-03-12T20:08:30.168Z,100082.38
2023-03-12T20:11:08.189Z,100071.41
2023-03-12T20:13:35.688Z,100070.31
2023-03-12T20:16:04.150Z,100067.94
2023-03-12T20:18:31.695Z,100067.78
2023-03-12T20:20:58.497Z,100063.19
2023-03-12T20:23:25.392Z,100067.69
2023-03-12T20:25:52.575Z,100061.63
2023-03-12T20:28:19.637Z,100051.16
2023-03-12T20:30:46.267Z,100058.34
2023-03-12T20:33:13.170Z,100053.34
2023-03-12T20:35:40.083Z,100046.94
2023-03-12T20:38:07.530Z,100037.13
2023-03-12T20:40:34.776Z,100035.72
2023-03-12T20:43:04.997Z,100030.50
2023-03-12T20:45:33.341Z,100031.53
2023-03-12T20:48:00.984Z,100026.94
2023-03-12T20:50:28.258Z,100032.63
2023-03-12T20:52:55.674Z,100031.84
2023-03-12T20:55:22.980Z,100030.13
2023-03-12T20:57:50.761Z,100014.09
2023-03-12T21:00:18.124Z,100024.50
2023-03-12T21:02:45.476Z,100007.84
2023-03-12T21:05:13.639Z,100009.63
2023-03-12T21:07:41.413Z,100003.44
2023-03-12T21:10:09.388Z,99994.50
2023-03-12T21:12:39.563Z,99990.38
2023-03-12T21:15:12.280Z,99973.19
2023-03-12T21:17:40.569Z,99977.66
2023-03-12T21:20:14.627Z,99981.50
2023-03-12T21:22:43.287Z,99974.44
2023-03-12T21:25:10.860Z,99975.88
2023-03-12T21:27:49.922Z,99963.78
2023-03-12T21:30:18.280Z,99980.34
2023-03-12T21:32:45.256Z,99966.03
2023-03-12T21:35:12.296Z,99958.13
2023-03-12T21:37:40.629Z,99961.69
2023-03-12T21:40:08.968Z,99964.03
2023-03-12T21:42:36.719Z,99951.03
2023-03-12T21:45:05.134Z,99958.75
2023-03-12T21:47:32.468Z,99954.88
2023-03-12T21:49:59.667Z,99941.41
2023-03-12T21:52:26.468Z,99947.25
2023-03-12T21:54:53.309Z,99937.97
2023-03-12T21:57:20.254Z,99945.84
2023-03-12T21:59:47.361Z,99940.84
2023-03-12T22:02:16.068Z,99936.47
2023-03-12T22:04:43.138Z,99925.69
2023-03-12T22:07:09.868Z,99923.34
2023-03-12T22:09:36.892Z,99914.69
2023-03-12T22:12:03.969Z,99915.88
2023-03-12T22:14:31.045Z,99911.78
2023-03-12T22:16:58.022Z,99907.41
2023-03-12T22:19:25.005Z,99902.94
2023-03-12T22:21:52.121Z,99907.69
2023-03-12T22:24:18.946Z,99914.38
2023-03-12T22:26:46.139Z,99901.41
2023-03-12T22:29:13.012Z,99903.84
2023-03-12T22:31:39.636Z,99902.81
2023-03-12T22:34:06.700Z,99892.75
2023-03-12T22:36:33.614Z,99891.22
2023-03-12T22:39:00.314Z,99879.06
2023-03-12T22:41:29.028Z,99881.78
2023-03-12T22:44:00.984Z,99879.03
2023-03-12T22:46:28.505Z,99884.69
2023-03-12T22:48:58.970Z,99887.88
2023-03-12T22:51:27.733Z,99868.19
2023-03-12T22:53:55.230Z,99879.69
2023-03-12T22:56:22.643Z,99871.72
2023-03-12T22:58:49.937Z,99871.34
2023-03-12T23:01:19.811Z,99871.63
2023-03-12T23:03:47.717Z,99866.00
2023-03-12T23:06:16.072Z,99865.94
2023-03-12T23:08:43.300Z,99861.63
2023-03-12T23:11:11.873Z,99850.06
2023-03-12T23:13:41.620Z,99854.09
2023-03-12T23:16:14.770Z,99847.22
2023-03-12T23:18:42.828Z,99832.59
2023-03-12T23:21:12.437Z,99842.13
2023-03-12T23:23:41.967Z,99828.94
2023-03-12T23:26:12.985Z,99826.13
2023-03-12T23:28:41.056Z,99826.34
2023-03-12T23:31:09.259Z,99815.41
2023-03-12T23:33:37.140Z,99818.06
2023-03-12T23:36:10.526Z,99814.97
2023-03-12T23:38:37.925Z,99805.00
2023-03-12T23:41:06.083Z,99800.91
2023-03-12T23:43:33.956Z,99789.16
2023-03-12T23:46:03.485Z,99790.41
2023-03-12T23:48:32.564Z,99789.03
2023-03-12T23:51:08.622Z,99773.50
2023-03-12T23:53:36.874Z,99779.50
2023-03-12T23:56:06.593Z,99751.81
2023-03-12T23:58:35.548Z,99756.91
